Southbridge, Virginia
Current Conditions -  °F | °C
As of 4:56 AM on Friday 31 Oct 2014 (Local Time) from KNYG Reporting Station
Overcast Overcast  
Wind Chill: 39°   Ceiling: 6000
Heat Index: 43°   Visibility: 10mi
Dew Point: 37°   Wind: 7mph
Humidity: 80%   Direction: 310°NW
Pressure: 30.02"   Gusts: NA
Location:  38.5728°N, 77.3038°W
Report Text: KNYG 310856Z AUTO 31006KT 10SM OVC060 06/03 A3002 RMK AO2 SLP166 T00610028 56008 $
Loading
Personal Weather Stations






























Interactive Weather Map
Tropical Storm Tracking
New forecast layout! Learn more

10-Day Weather Forecast

Advertisements
Track Severe Weather on mobile